createdAt,value
2019-02-24T00:04:54.388Z,59.46
2019-02-24T00:09:57.370Z,58.57
2019-02-24T00:15:00.353Z,59.48
2019-02-24T00:20:03.412Z,60.62
2019-02-24T00:25:06.404Z,60.10
2019-02-24T00:30:09.384Z,60.53
2019-02-24T00:35:12.339Z,60.02
2019-02-24T00:40:15.385Z,60.47
2019-02-24T00:45:18.375Z,60.49
2019-02-24T00:50:21.593Z,59.54
2019-02-24T00:55:24.569Z,59.66
2019-02-24T01:00:27.704Z,60.13
2019-02-24T01:05:31.010Z,60.21
2019-02-24T01:10:33.958Z,56.94
2019-02-24T01:15:36.955Z,57.35
2019-02-24T01:20:39.976Z,56.93
2019-02-24T01:25:42.966Z,57.58
2019-02-24T01:30:46.013Z,57.41
2019-02-24T01:35:49.180Z,57.86
2019-02-24T01:40:52.215Z,58.50
2019-02-24T01:45:55.718Z,57.21
2019-02-24T01:50:58.629Z,58.00
2019-02-24T01:56:01.740Z,59.00
2019-02-24T02:01:04.721Z,58.37
2019-02-24T02:06:07.929Z,59.77
2019-02-24T02:11:11.113Z,58.90
2019-02-24T02:16:14.376Z,58.45
2019-02-24T02:21:17.558Z,59.90
2019-02-24T02:26:20.703Z,59.80
2019-02-24T02:31:23.686Z,58.48
2019-02-24T02:36:26.715Z,58.47
2019-02-24T02:41:30.200Z,59.09
2019-02-24T02:46:33.205Z,58.20
2019-02-24T02:51:36.176Z,58.94
2019-02-24T02:56:39.307Z,58.64
2019-02-24T03:01:42.410Z,57.46
2019-02-24T03:06:57.684Z,59.16
2019-02-24T03:12:00.977Z,58.10
2019-02-24T03:17:04.117Z,58.40
2019-02-24T03:22:07.509Z,58.21
2019-02-24T03:27:10.519Z,58.95
2019-02-24T03:32:13.469Z,59.18
2019-02-24T03:37:16.460Z,60.01
2019-02-24T03:42:19.430Z,60.44
2019-02-24T03:47:22.566Z,60.97
2019-02-24T03:52:25.602Z,61.31
2019-02-24T03:57:28.662Z,60.85
2019-02-24T04:02:31.822Z,61.76
2019-02-24T04:07:34.951Z,61.99
2019-02-24T04:12:37.933Z,61.69
2019-02-24T04:17:41.161Z,62.22
2019-02-24T04:22:44.471Z,62.50
2019-02-24T04:27:47.859Z,62.38
2019-02-24T04:32:50.967Z,62.44
2019-02-24T04:37:53.976Z,61.09
2019-02-24T04:42:56.903Z,60.92
2019-02-24T04:47:59.953Z,59.88
2019-02-24T04:53:05.678Z,59.52
2019-02-24T04:58:08.711Z,59.24
2019-02-24T05:03:11.689Z,58.76
2019-02-24T05:08:15.257Z,58.72
2019-02-24T05:13:18.259Z,59.45
2019-02-24T05:18:21.369Z,59.58
2019-02-24T05:23:24.322Z,60.66
2019-02-24T05:28:27.322Z,60.66
2019-02-24T05:33:30.498Z,62.54
2019-02-24T05:38:33.432Z,61.98
2019-02-24T05:43:36.617Z,62.60
2019-02-24T05:48:39.965Z,62.84
2019-02-24T05:53:43.188Z,63.12
2019-02-24T05:58:46.166Z,63.01
2019-02-24T06:03:49.475Z,63.28
2019-02-24T06:08:52.526Z,63.90
2019-02-24T06:13:55.585Z,63.57
2019-02-24T06:18:58.697Z,62.51
2019-02-24T06:24:01.664Z,62.80
2019-02-24T06:29:04.643Z,61.06
2019-02-24T06:34:07.789Z,60.50
2019-02-24T06:39:11.065Z,59.88
2019-02-24T06:44:14.015Z,59.62
2019-02-24T06:49:17.082Z,59.54
2019-02-24T06:54:20.092Z,58.83
2019-02-24T06:59:23.439Z,58.58
2019-02-24T07:04:26.412Z,57.90
2019-02-24T07:09:29.395Z,60.01
2019-02-24T07:14:32.488Z,60.76
2019-02-24T07:19:35.420Z,59.91
2019-02-24T07:24:38.595Z,60.78
2019-02-24T07:29:41.686Z,60.27
2019-02-24T07:34:44.878Z,60.98
2019-02-24T07:39:48.077Z,59.95
2019-02-24T07:44:51.176Z,60.02
2019-02-24T07:49:54.265Z,58.23
2019-02-24T07:54:57.233Z,57.90
2019-02-24T08:00:00.358Z,57.95
2019-02-24T08:05:03.625Z,57.11
2019-02-24T08:10:07.274Z,57.12
2019-02-24T08:15:10.367Z,56.01
2019-02-24T08:20:13.325Z,55.66
2019-02-24T08:25:16.270Z,55.33
2019-02-24T08:30:19.525Z,54.62
2019-02-24T08:35:22.568Z,55.04
2019-02-24T08:40:25.609Z,54.86
2019-02-24T08:45:28.591Z,54.40
2019-02-24T08:50:31.685Z,53.76
2019-02-24T08:55:34.627Z,53.02
2019-02-24T09:00:37.858Z,52.38
2019-02-24T09:05:40.944Z,53.42
2019-02-24T09:10:44.005Z,53.80
2019-02-24T09:15:46.956Z,53.07
2019-02-24T09:20:50.048Z,52.87
2019-02-24T09:25:53.065Z,52.33
2019-02-24T09:31:00.874Z,52.95
2019-02-24T09:36:01.331Z,51.44
2019-02-24T09:41:04.565Z,51.39
2019-02-24T09:46:07.627Z,51.09
2019-02-24T09:51:10.593Z,50.62
2019-02-24T09:56:13.524Z,51.01
2019-02-24T10:01:16.488Z,51.50
2019-02-24T10:06:19.477Z,50.80
2019-02-24T10:11:22.468Z,50.16
2019-02-24T10:16:25.559Z,50.40
2019-02-24T10:21:28.622Z,51.17
2019-02-24T10:26:31.722Z,49.29
2019-02-24T10:31:34.679Z,50.78
2019-02-24T10:36:37.902Z,49.33
2019-02-24T10:41:40.849Z,48.94
2019-02-24T10:46:44.023Z,48.52
2019-02-24T10:51:47.136Z,48.82
2019-02-24T10:56:50.102Z,48.03
2019-02-24T11:01:53.282Z,47.10
2019-02-24T11:06:56.287Z,46.75
2019-02-24T11:11:59.354Z,46.45
2019-02-24T11:17:02.398Z,47.62
2019-02-24T11:22:05.470Z,46.60
2019-02-24T11:27:08.545Z,47.80
2019-02-24T11:32:11.678Z,46.87
2019-02-24T11:37:14.761Z,46.46
2019-02-24T11:42:17.730Z,46.23
2019-02-24T11:47:20.762Z,44.80
2019-02-24T11:52:23.720Z,43.86
2019-02-24T11:57:27.091Z,44.43
2019-02-24T12:02:34.444Z,43.79
2019-02-24T12:07:35.192Z,44.16
2019-02-24T12:12:38.283Z,44.99
2019-02-24T12:17:41.312Z,44.78
2019-02-24T12:22:44.707Z,44.89
2019-02-24T12:27:47.698Z,45.00
2019-02-24T12:32:50.977Z,45.37
2019-02-24T12:37:53.936Z,45.52
2019-02-24T12:42:57.104Z,44.92
2019-02-24T12:48:00.439Z,44.36
2019-02-24T12:53:03.787Z,45.06
2019-02-24T12:58:07.523Z,44.12
2019-02-24T13:03:10.700Z,42.76
2019-02-24T13:08:13.672Z,43.01
2019-02-24T13:13:16.618Z,43.65
2019-02-24T13:18:19.601Z,42.85
2019-02-24T13:23:22.617Z,43.00
2019-02-24T13:28:25.614Z,43.28
2019-02-24T13:33:28.872Z,43.24
2019-02-24T13:38:31.848Z,43.20
2019-02-24T13:43:34.889Z,43.82
2019-02-24T13:48:38.107Z,44.21
2019-02-24T13:53:41.382Z,44.54
2019-02-24T13:58:44.530Z,44.33
2019-02-24T14:03:47.590Z,44.17
2019-02-24T14:08:50.620Z,43.68
2019-02-24T14:13:53.595Z,44.23
2019-02-24T14:18:56.674Z,43.85
2019-02-24T14:23:59.718Z,45.27
2019-02-24T14:29:02.706Z,45.11
2019-02-24T14:34:06.222Z,45.18
2019-02-24T14:39:09.247Z,44.46
2019-02-24T14:44:12.621Z,44.47
2019-02-24T14:49:15.659Z,44.63
2019-02-24T14:54:18.672Z,44.83
2019-02-24T14:59:22.186Z,45.87
2019-02-24T15:04:25.628Z,46.47
2019-02-24T15:09:28.641Z,46.57
2019-02-24T15:14:31.723Z,46.34
2019-02-24T15:19:35.150Z,47.34
2019-02-24T15:24:38.247Z,47.21
2019-02-24T15:29:41.443Z,47.46
2019-02-24T15:34:44.466Z,48.01
2019-02-24T15:39:47.513Z,48.63
2019-02-24T15:44:50.500Z,47.58
2019-02-24T15:49:53.604Z,48.67
2019-02-24T15:54:56.866Z,48.39
2019-02-24T16:00:00.224Z,48.36
2019-02-24T16:05:03.930Z,47.83
2019-02-24T16:10:10.009Z,48.58
2019-02-24T16:15:14.474Z,50.01
2019-02-24T16:20:21.559Z,47.97
2019-02-24T16:25:24.587Z,48.60
2019-02-24T16:30:27.829Z,48.89
2019-02-24T16:35:30.957Z,49.34
2019-02-24T16:40:33.961Z,50.12
2019-02-24T16:45:37.373Z,49.49
2019-02-24T16:50:40.454Z,50.50
2019-02-24T16:55:43.574Z,50.19
2019-02-24T17:00:46.555Z,50.61
2019-02-24T17:05:49.758Z,50.16
2019-02-24T17:10:52.720Z,50.09
2019-02-24T17:15:56.001Z,51.71
2019-02-24T17:20:59.089Z,52.02
2019-02-24T17:26:02.088Z,52.01
2019-02-24T17:31:07.017Z,52.30
2019-02-24T17:36:10.361Z,51.48
2019-02-24T17:41:13.436Z,52.37
2019-02-24T17:46:16.955Z,51.77
2019-02-24T17:51:21.548Z,51.09
2019-02-24T17:56:25.022Z,49.99
2019-02-24T18:01:28.236Z,51.89
2019-02-24T18:06:31.471Z,51.24
2019-02-24T18:11:34.488Z,50.19
2019-02-24T18:16:37.544Z,50.58
2019-02-24T18:21:40.667Z,50.24
2019-02-24T18:26:43.796Z,50.50
2019-02-24T18:31:46.796Z,50.39
2019-02-24T18:36:50.129Z,50.26
2019-02-24T18:41:53.195Z,50.62
2019-02-24T18:46:56.264Z,50.38
2019-02-24T18:51:59.411Z,49.79
2019-02-24T18:57:02.428Z,49.39
2019-02-24T19:02:05.519Z,50.53
2019-02-24T19:07:08.640Z,49.77
2019-02-24T19:12:11.716Z,49.13
2019-02-24T19:17:14.879Z,47.34
2019-02-24T19:22:17.956Z,49.54
2019-02-24T19:27:20.903Z,48.74
2019-02-24T19:32:24.054Z,48.63
2019-02-24T19:37:27.043Z,48.71
2019-02-24T19:42:30.178Z,49.42
2019-02-24T19:47:33.156Z,49.55
2019-02-24T19:52:36.163Z,48.99
2019-02-24T19:57:39.333Z,49.31
2019-02-24T20:02:42.545Z,49.00
2019-02-24T20:07:45.744Z,48.17
2019-02-24T20:12:48.734Z,47.87
2019-02-24T20:17:51.794Z,48.64
2019-02-24T20:22:54.793Z,48.32
2019-02-24T20:27:58.517Z,48.30
2019-02-24T20:33:01.642Z,47.54
2019-02-24T20:38:05.386Z,49.05
2019-02-24T20:43:08.537Z,47.83
2019-02-24T20:48:11.527Z,48.08
2019-02-24T20:53:14.595Z,48.75
2019-02-24T20:58:17.999Z,48.26
2019-02-24T21:03:22.573Z,49.16
2019-02-24T21:08:25.806Z,49.59
2019-02-24T21:13:29.176Z,48.89
2019-02-24T21:18:32.406Z,49.28
2019-02-24T21:23:35.488Z,48.99
2019-02-24T21:28:38.617Z,49.92
2019-02-24T21:33:41.631Z,49.58
2019-02-24T21:38:44.794Z,49.89
2019-02-24T21:43:47.885Z,48.98
2019-02-24T21:48:50.937Z,48.26
2019-02-24T21:53:54.915Z,48.56
2019-02-24T21:58:57.921Z,48.23
2019-02-24T22:04:00.932Z,48.17
2019-02-24T22:09:06.601Z,47.70
2019-02-24T22:14:09.790Z,48.80
2019-02-24T22:19:12.802Z,48.62
2019-02-24T22:24:15.978Z,47.47
2019-02-24T22:29:18.972Z,47.63
2019-02-24T22:34:21.963Z,46.79
2019-02-24T22:39:25.008Z,45.98
2019-02-24T22:44:28.117Z,46.30
2019-02-24T22:49:31.226Z,46.58
2019-02-24T22:54:34.245Z,47.47
2019-02-24T22:59:37.470Z,45.40
2019-02-24T23:04:40.744Z,46.49
2019-02-24T23:09:43.960Z,46.74
2019-02-24T23:14:46.957Z,49.30
2019-02-24T23:19:50.065Z,47.50
2019-02-24T23:24:53.040Z,46.60
2019-02-24T23:29:56.068Z,46.02
2019-02-24T23:34:59.133Z,45.91
2019-02-24T23:40:02.450Z,45.72
2019-02-24T23:45:10.180Z,44.91
2019-02-24T23:50:11.093Z,44.90
2019-02-24T23:55:14.069Z,44.46
